Terminal Aerodrome Forecast
Issued by NWS Pocatello, ID

Home | Current Version | Previous Version | Text Only | Print | Product List | Glossary On
Versions: 1 2 3 4 5 6 7 8 9 10 11 12 13
621
FTUS45 KPIH 252333
TAFBYI
TAF
KBYI 252333Z 2600/2624 27012G22KT P6SM FEW050
     FM260200 27008KT P6SM SKC
     FM260900 VRB06KT P6SM SCT150
     FM261800 21011KT P6SM VCSH SCT040 BKN060
     FM262100 21011KT 6SM -RA BR BKN040 OVC050=

USA.gov is the U.S. government's official web portal to all federal, state and local government web resources and services.